sensor_id;sensor_type;location;lat;lon;timestamp;temperature;humidity
17944;DHT22;9097;47.028;15.444;2023-03-03T00:05:24;7.10;99.90
17944;DHT22;9097;47.028;15.444;2023-03-03T00:08:26;7.10;99.90
17944;DHT22;9097;47.028;15.444;2023-03-03T00:11:28;7.10;99.90
17944;DHT22;9097;47.028;15.444;2023-03-03T00:14:32;7.10;99.90
17944;DHT22;9097;47.028;15.444;2023-03-03T00:17:36;7.00;99.90
17944;DHT22;9097;47.028;15.444;2023-03-03T00:20:39;7.00;99.90
17944;DHT22;9097;47.028;15.444;2023-03-03T00:23:41;7.00;99.90
17944;DHT22;9097;47.028;15.444;2023-03-03T00:26:45;6.90;99.90
17944;DHT22;9097;47.028;15.444;2023-03-03T00:29:49;6.90;99.90
17944;DHT22;9097;47.028;15.444;2023-03-03T00:32:55;6.90;99.90
17944;DHT22;9097;47.028;15.444;2023-03-03T00:36:09;6.90;99.90
17944;DHT22;9097;47.028;15.444;2023-03-03T00:39:26;6.90;99.90
17944;DHT22;9097;47.028;15.444;2023-03-03T00:42:33;6.90;99.90
17944;DHT22;9097;47.028;15.444;2023-03-03T00:45:43;6.80;99.90
17944;DHT22;9097;47.028;15.444;2023-03-03T00:48:48;6.60;99.90
17944;DHT22;9097;47.028;15.444;2023-03-03T03:52:15;5.90;99.90
17944;DHT22;9097;47.028;15.444;2023-03-03T03:55:17;6.50;99.90
17944;DHT22;9097;47.028;15.444;2023-03-03T04:01:23;5.90;99.90
17944;DHT22;9097;47.028;15.444;2023-03-03T04:04:26;5.70;99.90
17944;DHT22;9097;47.028;15.444;2023-03-03T04:07:28;5.60;99.90
17944;DHT22;9097;47.028;15.444;2023-03-03T04:10:31;5.70;99.90
17944;DHT22;9097;47.028;15.444;2023-03-03T04:13:34;5.70;99.90
17944;DHT22;9097;47.028;15.444;2023-03-03T04:16:37;5.50;99.90
17944;DHT22;9097;47.028;15.444;2023-03-03T04:34:54;5.50;99.90
17944;DHT22;9097;47.028;15.444;2023-03-03T04:37:57;5.40;99.90
17944;DHT22;9097;47.028;15.444;2023-03-03T04:41:00;5.40;99.90
17944;DHT22;9097;47.028;15.444;2023-03-03T04:44:03;5.20;99.90
17944;DHT22;9097;47.028;15.444;2023-03-03T04:47:06;5.40;99.90
17944;DHT22;9097;47.028;15.444;2023-03-03T04:50:09;5.20;99.90
17944;DHT22;9097;47.028;15.444;2023-03-03T04:53:12;5.20;99.90
17944;DHT22;9097;47.028;15.444;2023-03-03T04:56:14;5.20;99.90
17944;DHT22;9097;47.028;15.444;2023-03-03T04:59:18;5.00;99.90
17944;DHT22;9097;47.028;15.444;2023-03-03T05:02:20;5.10;99.90
17944;DHT22;9097;47.028;15.444;2023-03-03T05:05:22;5.10;99.90
17944;DHT22;9097;47.028;15.444;2023-03-03T05:08:25;5.00;99.90
17944;DHT22;9097;47.028;15.444;2023-03-03T05:11:27;5.00;99.90
17944;DHT22;9097;47.028;15.444;2023-03-03T05:14:31;5.10;99.90
17944;DHT22;9097;47.028;15.444;2023-03-03T05:17:33;5.20;99.90
17944;DHT22;9097;47.028;15.444;2023-03-03T05:20:35;5.20;99.90
17944;DHT22;9097;47.028;15.444;2023-03-03T05:23:38;5.10;99.90
17944;DHT22;9097;47.028;15.444;2023-03-03T05:26:40;5.20;99.90
17944;DHT22;9097;47.028;15.444;2023-03-03T05:29:44;5.30;99.90
17944;DHT22;9097;47.028;15.444;2023-03-03T05:32:46;5.30;99.90
17944;DHT22;9097;47.028;15.444;2023-03-03T05:35:53;5.30;99.90
17944;DHT22;9097;47.028;15.444;2023-03-03T05:38:56;5.40;99.90
17944;DHT22;9097;47.028;15.444;2023-03-03T05:41:58;5.20;99.90
17944;DHT22;9097;47.028;15.444;2023-03-03T05:45:03;5.50;99.90
17944;DHT22;9097;47.028;15.444;2023-03-03T05:48:05;5.40;99.90
17944;DHT22;9097;47.028;15.444;2023-03-03T05:51:10;5.40;99.90
17944;DHT22;9097;47.028;15.444;2023-03-03T05:54:12;5.50;99.90
17944;DHT22;9097;47.028;15.444;2023-03-03T05:57:14;5.40;99.90
17944;DHT22;9097;47.028;15.444;2023-03-03T06:00:19;5.50;99.90
17944;DHT22;9097;47.028;15.444;2023-03-03T06:03:22;5.50;99.90
17944;DHT22;9097;47.028;15.444;2023-03-03T06:06:24;5.50;99.90
17944;DHT22;9097;47.028;15.444;2023-03-03T06:09:28;5.60;99.90
17944;DHT22;9097;47.028;15.444;2023-03-03T06:12:30;5.60;99.90
17944;DHT22;9097;47.028;15.444;2023-03-03T06:15:34;5.60;99.90
17944;DHT22;9097;47.028;15.444;2023-03-03T06:18:36;5.60;99.90
17944;DHT22;9097;47.028;15.444;2023-03-03T06:21:38;5.60;99.90
17944;DHT22;9097;47.028;15.444;2023-03-03T06:24:40;5.70;99.90
17944;DHT22;9097;47.028;15.444;2023-03-03T06:27:43;5.70;99.90
17944;DHT22;9097;47.028;15.444;2023-03-03T06:30:46;5.90;99.90
17944;DHT22;9097;47.028;15.444;2023-03-03T06:33:49;5.90;99.90
17944;DHT22;9097;47.028;15.444;2023-03-03T06:36:51;5.90;99.90
17944;DHT22;9097;47.028;15.444;2023-03-03T06:39:53;5.80;99.90
17944;DHT22;9097;47.028;15.444;2023-03-03T06:42:55;6.00;99.90
17944;DHT22;9097;47.028;15.444;2023-03-03T06:45:59;6.00;99.90
17944;DHT22;9097;47.028;15.444;2023-03-03T06:49:01;6.10;99.90
17944;DHT22;9097;47.028;15.444;2023-03-03T06:52:10;6.10;99.90
17944;DHT22;9097;47.028;15.444;2023-03-03T06:55:20;6.30;99.90
17944;DHT22;9097;47.028;15.444;2023-03-03T06:58:25;6.30;99.90
17944;DHT22;9097;47.028;15.444;2023-03-03T07:01:34;6.20;99.90
17944;DHT22;9097;47.028;15.444;2023-03-03T07:04:37;6.00;99.90
17944;DHT22;9097;47.028;15.444;2023-03-03T07:07:39;6.20;99.90
17944;DHT22;9097;47.028;15.444;2023-03-03T07:10:42;6.00;99.90
17944;DHT22;9097;47.028;15.444;2023-03-03T07:13:46;6.20;99.90
17944;DHT22;9097;47.028;15.444;2023-03-03T07:16:57;6.20;99.90
17944;DHT22;9097;47.028;15.444;2023-03-03T07:20:00;6.10;99.90
17944;DHT22;9097;47.028;15.444;2023-03-03T07:23:13;6.40;99.90
17944;DHT22;9097;47.028;15.444;2023-03-03T07:26:19;6.30;99.90
17944;DHT22;9097;47.028;15.444;2023-03-03T07:29:24;6.50;99.90
17944;DHT22;9097;47.028;15.444;2023-03-03T07:32:34;6.40;99.90
17944;DHT22;9097;47.028;15.444;2023-03-03T07:35:40;6.60;99.90
17944;DHT22;9097;47.028;15.444;2023-03-03T07:38:49;6.50;99.90
17944;DHT22;9097;47.028;15.444;2023-03-03T07:41:58;6.50;99.90
17944;DHT22;9097;47.028;15.444;2023-03-03T07:45:21;6.70;99.90
17944;DHT22;9097;47.028;15.444;2023-03-03T07:48:30;6.60;99.90
17944;DHT22;9097;47.028;15.444;2023-03-03T07:51:38;6.60;99.90
17944;DHT22;9097;47.028;15.444;2023-03-03T07:54:43;6.70;99.90
17944;DHT22;9097;47.028;15.444;2023-03-03T07:57:48;6.90;99.90
17944;DHT22;9097;47.028;15.444;2023-03-03T08:07:40;7.20;99.90
17944;DHT22;9097;47.028;15.444;2023-03-03T08:10:46;7.20;99.90
17944;DHT22;9097;47.028;15.444;2023-03-03T08:13:48;7.20;99.90
17944;DHT22;9097;47.028;15.444;2023-03-03T08:16:50;7.30;99.90
17944;DHT22;9097;47.028;15.444;2023-03-03T08:19:55;7.20;99.90
17944;DHT22;9097;47.028;15.444;2023-03-03T08:22:58;7.20;99.90
17944;DHT22;9097;47.028;15.444;2023-03-03T08:26:00;7.20;99.90
17944;DHT22;9097;47.028;15.444;2023-03-03T08:29:03;7.30;99.90
17944;DHT22;9097;47.028;15.444;2023-03-03T08:32:05;7.40;99.90
17944;DHT22;9097;47.028;15.444;2023-03-03T08:35:10;7.60;99.90
17944;DHT22;9097;47.028;15.444;2023-03-03T08:38:15;7.70;99.90
17944;DHT22;9097;47.028;15.444;2023-03-03T08:41:17;7.80;99.90
17944;DHT22;9097;47.028;15.444;2023-03-03T08:47:22;8.60;99.90
17944;DHT22;9097;47.028;15.444;2023-03-03T08:50:26;8.40;99.90
17944;DHT22;9097;47.028;15.444;2023-03-03T08:53:29;8.40;99.90
17944;DHT22;9097;47.028;15.444;2023-03-03T08:56:33;8.40;99.90
17944;DHT22;9097;47.028;15.444;2023-03-03T08:59:35;8.50;99.90
17944;DHT22;9097;47.028;15.444;2023-03-03T09:02:39;8.90;99.90
17944;DHT22;9097;47.028;15.444;2023-03-03T11:27:39;15.50;95.80
17944;DHT22;9097;47.028;15.444;2023-03-03T11:40:15;15.30;96.60
17944;DHT22;9097;47.028;15.444;2023-03-03T11:58:59;14.70;98.10
17944;DHT22;9097;47.028;15.444;2023-03-03T12:02:24;15.00;99.90
17944;DHT22;9097;47.028;15.444;2023-03-03T12:05:47;14.80;99.90
17944;DHT22;9097;47.028;15.444;2023-03-03T16:10:34;11.90;99.90
17944;DHT22;9097;47.028;15.444;2023-03-03T16:29:45;11.50;99.90
17944;DHT22;9097;47.028;15.444;2023-03-03T17:35:57;9.40;99.90
17944;DHT22;9097;47.028;15.444;2023-03-03T17:39:14;9.20;99.90
17944;DHT22;9097;47.028;15.444;2023-03-03T18:18:02;8.20;99.90
17944;DHT22;9097;47.028;15.444;2023-03-03T18:21:09;8.10;99.90
17944;DHT22;9097;47.028;15.444;2023-03-03T18:24:29;8.00;99.90
17944;DHT22;9097;47.028;15.444;2023-03-03T18:30:55;7.90;99.90
17944;DHT22;9097;47.028;15.444;2023-03-03T18:34:08;7.90;99.90
17944;DHT22;9097;47.028;15.444;2023-03-03T18:37:38;7.80;99.90
17944;DHT22;9097;47.028;15.444;2023-03-03T18:43:58;7.60;99.90
17944;DHT22;9097;47.028;15.444;2023-03-03T18:47:04;7.40;99.90
17944;DHT22;9097;47.028;15.444;2023-03-03T18:50:20;7.40;99.90
17944;DHT22;9097;47.028;15.444;2023-03-03T21:03:32;6.40;99.90
17944;DHT22;9097;47.028;15.444;2023-03-03T21:47:27;5.50;99.90
17944;DHT22;9097;47.028;15.444;2023-03-03T21:50:29;5.10;99.90
17944;DHT22;9097;47.028;15.444;2023-03-03T21:53:32;5.00;99.90
17944;DHT22;9097;47.028;15.444;2023-03-03T21:56:35;5.00;99.90
17944;DHT22;9097;47.028;15.444;2023-03-03T21:59:42;4.90;99.90
17944;DHT22;9097;47.028;15.444;2023-03-03T22:02:45;4.80;99.90
17944;DHT22;9097;47.028;15.444;2023-03-03T22:05:47;4.70;99.90
17944;DHT22;9097;47.028;15.444;2023-03-03T22:08:50;4.70;99.90
17944;DHT22;9097;47.028;15.444;2023-03-03T22:11:52;4.70;99.90
17944;DHT22;9097;47.028;15.444;2023-03-03T22:14:56;4.60;99.90
17944;DHT22;9097;47.028;15.444;2023-03-03T22:17:58;4.50;99.90
17944;DHT22;9097;47.028;15.444;2023-03-03T22:21:01;4.50;99.90
17944;DHT22;9097;47.028;15.444;2023-03-03T22:24:04;4.50;99.90
17944;DHT22;9097;47.028;15.444;2023-03-03T22:27:06;4.30;99.90
17944;DHT22;9097;47.028;15.444;2023-03-03T22:30:12;4.20;99.90
17944;DHT22;9097;47.028;15.444;2023-03-03T22:33:14;4.20;99.90
17944;DHT22;9097;47.028;15.444;2023-03-03T22:36:17;4.30;99.90
17944;DHT22;9097;47.028;15.444;2023-03-03T22:39:19;4.30;99.90
17944;DHT22;9097;47.028;15.444;2023-03-03T22:42:22;4.40;99.90
17944;DHT22;9097;47.028;15.444;2023-03-03T22:45:26;4.40;99.90
17944;DHT22;9097;47.028;15.444;2023-03-03T22:48:30;4.20;99.90
17944;DHT22;9097;47.028;15.444;2023-03-03T22:51:33;3.90;99.90
17944;DHT22;9097;47.028;15.444;2023-03-03T22:57:38;4.00;99.90
17944;DHT22;9097;47.028;15.444;2023-03-03T23:00:41;3.80;99.90
17944;DHT22;9097;47.028;15.444;2023-03-03T23:03:44;4.10;99.90
17944;DHT22;9097;47.028;15.444;2023-03-03T23:06:46;4.10;99.90
17944;DHT22;9097;47.028;15.444;2023-03-03T23:09:50;4.20;99.90
17944;DHT22;9097;47.028;15.444;2023-03-03T23:12:52;4.10;99.90
17944;DHT22;9097;47.028;15.444;2023-03-03T23:15:56;4.10;99.90
17944;DHT22;9097;47.028;15.444;2023-03-03T23:19:00;4.30;99.90
17944;DHT22;9097;47.028;15.444;2023-03-03T23:22:02;4.00;99.90
17944;DHT22;9097;47.028;15.444;2023-03-03T23:25:06;3.90;99.90
17944;DHT22;9097;47.028;15.444;2023-03-03T23:28:08;3.80;99.90
17944;DHT22;9097;47.028;15.444;2023-03-03T23:31:12;3.60;99.90
17944;DHT22;9097;47.028;15.444;2023-03-03T23:37:17;3.50;99.90
17944;DHT22;9097;47.028;15.444;2023-03-03T23:40:20;3.50;99.90
17944;DHT22;9097;47.028;15.444;2023-03-03T23:43:22;3.40;99.90
17944;DHT22;9097;47.028;15.444;2023-03-03T23:46:26;3.40;99.90
17944;DHT22;9097;47.028;15.444;2023-03-03T23:49:28;3.40;99.90
17944;DHT22;9097;47.028;15.444;2023-03-03T23:52:31;3.50;99.90
17944;DHT22;9097;47.028;15.444;2023-03-03T23:55:34;3.50;99.90
17944;DHT22;9097;47.028;15.444;2023-03-03T23:58:37;3.40;99.90
